sensor_id;sensor_type;location;lat;lon;timestamp;P1;durP1;ratioP1;P2;durP2;ratioP2
63008;SDS011;49099;28.428;-16.488;2023-02-28T00:01:23;5.72;;;1.00;;
63008;SDS011;49099;28.428;-16.488;2023-02-28T00:03:52;6.07;;;1.08;;
63008;SDS011;49099;28.428;-16.488;2023-02-28T00:06:19;4.68;;;1.20;;
63008;SDS011;49099;28.428;-16.488;2023-02-28T00:08:47;4.13;;;1.10;;
63008;SDS011;49099;28.428;-16.488;2023-02-28T00:11:15;6.50;;;1.35;;
63008;SDS011;49099;28.428;-16.488;2023-02-28T00:13:43;4.75;;;1.40;;
63008;SDS011;49099;28.428;-16.488;2023-02-28T00:16:14;3.50;;;1.10;;
63008;SDS011;49099;28.428;-16.488;2023-02-28T00:18:43;2.45;;;0.90;;
63008;SDS011;49099;28.428;-16.488;2023-02-28T00:21:10;3.58;;;0.82;;
63008;SDS011;49099;28.428;-16.488;2023-02-28T00:23:37;5.68;;;1.08;;
63008;SDS011;49099;28.428;-16.488;2023-02-28T00:26:05;6.32;;;1.02;;
63008;SDS011;49099;28.428;-16.488;2023-02-28T00:28:32;7.10;;;1.30;;
63008;SDS011;49099;28.428;-16.488;2023-02-28T00:30:59;4.32;;;1.27;;
63008;SDS011;49099;28.428;-16.488;2023-02-28T00:33:27;5.22;;;1.15;;
63008;SDS011;49099;28.428;-16.488;2023-02-28T00:36:08;7.55;;;1.30;;
63008;SDS011;49099;28.428;-16.488;2023-02-28T00:38:37;7.55;;;1.40;;
63008;SDS011;49099;28.428;-16.488;2023-02-28T00:41:05;6.80;;;1.60;;
63008;SDS011;49099;28.428;-16.488;2023-02-28T00:43:33;7.78;;;1.70;;
63008;SDS011;49099;28.428;-16.488;2023-02-28T00:46:02;9.15;;;1.75;;
63008;SDS011;49099;28.428;-16.488;2023-02-28T00:48:30;6.95;;;1.40;;
63008;SDS011;49099;28.428;-16.488;2023-02-28T00:50:57;4.18;;;1.30;;
63008;SDS011;49099;28.428;-16.488;2023-02-28T00:53:24;5.07;;;1.42;;
63008;SDS011;49099;28.428;-16.488;2023-02-28T00:55:52;6.13;;;1.58;;
63008;SDS011;49099;28.428;-16.488;2023-02-28T00:58:19;4.72;;;1.42;;
63008;SDS011;49099;28.428;-16.488;2023-02-28T01:00:46;4.78;;;1.10;;
63008;SDS011;49099;28.428;-16.488;2023-02-28T01:03:16;5.82;;;1.40;;
63008;SDS011;49099;28.428;-16.488;2023-02-28T01:05:44;5.50;;;1.20;;
63008;SDS011;49099;28.428;-16.488;2023-02-28T01:08:12;7.60;;;1.65;;
63008;SDS011;49099;28.428;-16.488;2023-02-28T01:10:40;7.88;;;1.50;;
63008;SDS011;49099;28.428;-16.488;2023-02-28T01:13:08;7.05;;;1.50;;
63008;SDS011;49099;28.428;-16.488;2023-02-28T01:15:35;8.18;;;1.40;;
63008;SDS011;49099;28.428;-16.488;2023-02-28T01:18:02;7.60;;;1.55;;
63008;SDS011;49099;28.428;-16.488;2023-02-28T01:20:29;5.88;;;1.42;;
63008;SDS011;49099;28.428;-16.488;2023-02-28T01:22:57;5.40;;;1.40;;
63008;SDS011;49099;28.428;-16.488;2023-02-28T01:25:24;6.15;;;1.23;;
63008;SDS011;49099;28.428;-16.488;2023-02-28T01:27:51;6.18;;;1.35;;
63008;SDS011;49099;28.428;-16.488;2023-02-28T01:30:18;8.80;;;1.55;;
63008;SDS011;49099;28.428;-16.488;2023-02-28T01:32:46;9.70;;;2.08;;
63008;SDS011;49099;28.428;-16.488;2023-02-28T01:35:13;8.23;;;1.80;;
63008;SDS011;49099;28.428;-16.488;2023-02-28T01:37:40;7.28;;;1.45;;
63008;SDS011;49099;28.428;-16.488;2023-02-28T01:40:07;7.85;;;2.03;;
63008;SDS011;49099;28.428;-16.488;2023-02-28T01:42:35;7.22;;;1.35;;
63008;SDS011;49099;28.428;-16.488;2023-02-28T01:45:18;9.00;;;1.70;;
63008;SDS011;49099;28.428;-16.488;2023-02-28T01:47:46;8.32;;;1.80;;
63008;SDS011;49099;28.428;-16.488;2023-02-28T01:50:17;13.35;;;2.78;;
63008;SDS011;49099;28.428;-16.488;2023-02-28T01:52:47;16.83;;;2.30;;
63008;SDS011;49099;28.428;-16.488;2023-02-28T01:55:16;10.88;;;2.20;;
63008;SDS011;49099;28.428;-16.488;2023-02-28T01:57:48;10.90;;;1.80;;
63008;SDS011;49099;28.428;-16.488;2023-02-28T02:00:22;7.80;;;1.83;;
63008;SDS011;49099;28.428;-16.488;2023-02-28T02:02:52;10.15;;;1.90;;
63008;SDS011;49099;28.428;-16.488;2023-02-28T02:05:26;13.45;;;2.20;;
63008;SDS011;49099;28.428;-16.488;2023-02-28T02:08:01;8.38;;;1.88;;
63008;SDS011;49099;28.428;-16.488;2023-02-28T02:10:41;9.02;;;1.70;;
63008;SDS011;49099;28.428;-16.488;2023-02-28T02:27:17;3.40;;;1.00;;
63008;SDS011;49099;28.428;-16.488;2023-02-28T02:38:30;6.30;;;1.20;;
63008;SDS011;49099;28.428;-16.488;2023-02-28T02:46:19;4.55;;;1.27;;
63008;SDS011;49099;28.428;-16.488;2023-02-28T02:48:53;7.78;;;1.30;;
63008;SDS011;49099;28.428;-16.488;2023-02-28T02:51:24;6.18;;;1.10;;
63008;SDS011;49099;28.428;-16.488;2023-02-28T02:53:58;4.53;;;1.30;;
63008;SDS011;49099;28.428;-16.488;2023-02-28T02:56:34;4.20;;;1.00;;
63008;SDS011;49099;28.428;-16.488;2023-02-28T02:59:03;6.47;;;1.20;;
63008;SDS011;49099;28.428;-16.488;2023-02-28T03:01:34;3.97;;;1.20;;
63008;SDS011;49099;28.428;-16.488;2023-02-28T03:04:08;4.35;;;1.30;;
63008;SDS011;49099;28.428;-16.488;2023-02-28T03:06:39;2.65;;;0.98;;
63008;SDS011;49099;28.428;-16.488;2023-02-28T03:09:06;3.80;;;1.08;;
63008;SDS011;49099;28.428;-16.488;2023-02-28T03:11:34;4.88;;;1.20;;
63008;SDS011;49099;28.428;-16.488;2023-02-28T03:22:43;6.65;;;1.13;;
63008;SDS011;49099;28.428;-16.488;2023-02-28T03:33:40;4.53;;;1.20;;
63008;SDS011;49099;28.428;-16.488;2023-02-28T03:36:14;4.40;;;1.35;;
63008;SDS011;49099;28.428;-16.488;2023-02-28T03:38:46;3.42;;;1.00;;
63008;SDS011;49099;28.428;-16.488;2023-02-28T03:41:23;3.13;;;0.85;;
63008;SDS011;49099;28.428;-16.488;2023-02-28T03:43:58;4.15;;;1.08;;
63008;SDS011;49099;28.428;-16.488;2023-02-28T03:46:31;5.18;;;1.20;;
63008;SDS011;49099;28.428;-16.488;2023-02-28T03:51:44;3.25;;;0.98;;
63008;SDS011;49099;28.428;-16.488;2023-02-28T03:54:14;3.80;;;0.90;;
63008;SDS011;49099;28.428;-16.488;2023-02-28T04:00:43;2.70;;;0.85;;
63008;SDS011;49099;28.428;-16.488;2023-02-28T04:02:57;2.58;;;1.10;;
63008;SDS011;49099;28.428;-16.488;2023-02-28T04:05:24;2.63;;;1.10;;
63008;SDS011;49099;28.428;-16.488;2023-02-28T04:07:52;6.03;;;1.52;;
63008;SDS011;49099;28.428;-16.488;2023-02-28T04:10:20;4.68;;;1.05;;
63008;SDS011;49099;28.428;-16.488;2023-02-28T04:12:48;5.70;;;1.40;;
63008;SDS011;49099;28.428;-16.488;2023-02-28T04:15:15;5.40;;;1.10;;
63008;SDS011;49099;28.428;-16.488;2023-02-28T04:17:42;6.18;;;1.10;;
63008;SDS011;49099;28.428;-16.488;2023-02-28T04:20:09;6.22;;;1.40;;
63008;SDS011;49099;28.428;-16.488;2023-02-28T04:22:38;7.07;;;1.50;;
63008;SDS011;49099;28.428;-16.488;2023-02-28T04:25:05;7.57;;;1.30;;
63008;SDS011;49099;28.428;-16.488;2023-02-28T04:27:33;3.35;;;1.08;;
63008;SDS011;49099;28.428;-16.488;2023-02-28T04:30:00;4.00;;;1.20;;
63008;SDS011;49099;28.428;-16.488;2023-02-28T04:32:27;5.72;;;1.20;;
63008;SDS011;49099;28.428;-16.488;2023-02-28T04:34:54;5.47;;;1.10;;
63008;SDS011;49099;28.428;-16.488;2023-02-28T04:37:21;3.85;;;1.15;;
63008;SDS011;49099;28.428;-16.488;2023-02-28T04:39:54;4.88;;;1.40;;
63008;SDS011;49099;28.428;-16.488;2023-02-28T04:42:21;2.40;;;1.10;;
63008;SDS011;49099;28.428;-16.488;2023-02-28T04:44:48;2.58;;;0.90;;
63008;SDS011;49099;28.428;-16.488;2023-02-28T04:47:16;3.95;;;1.10;;
63008;SDS011;49099;28.428;-16.488;2023-02-28T04:49:43;2.42;;;1.00;;
63008;SDS011;49099;28.428;-16.488;2023-02-28T04:52:10;3.30;;;1.05;;
63008;SDS011;49099;28.428;-16.488;2023-02-28T04:54:37;4.78;;;1.00;;
63008;SDS011;49099;28.428;-16.488;2023-02-28T04:57:05;2.10;;;0.75;;
63008;SDS011;49099;28.428;-16.488;2023-02-28T04:59:32;3.53;;;1.10;;
63008;SDS011;49099;28.428;-16.488;2023-02-28T05:02:01;3.30;;;1.35;;
63008;SDS011;49099;28.428;-16.488;2023-02-28T05:04:33;2.75;;;1.00;;
63008;SDS011;49099;28.428;-16.488;2023-02-28T05:07:01;1.95;;;0.80;;
63008;SDS011;49099;28.428;-16.488;2023-02-28T05:09:29;3.05;;;0.90;;
63008;SDS011;49099;28.428;-16.488;2023-02-28T05:11:56;2.35;;;0.90;;
63008;SDS011;49099;28.428;-16.488;2023-02-28T05:14:24;4.25;;;1.05;;
63008;SDS011;49099;28.428;-16.488;2023-02-28T05:16:51;3.40;;;1.10;;
63008;SDS011;49099;28.428;-16.488;2023-02-28T05:19:19;2.83;;;1.10;;
63008;SDS011;49099;28.428;-16.488;2023-02-28T05:21:49;2.63;;;0.85;;
63008;SDS011;49099;28.428;-16.488;2023-02-28T05:24:18;3.40;;;1.10;;
63008;SDS011;49099;28.428;-16.488;2023-02-28T05:26:50;5.32;;;1.02;;
63008;SDS011;49099;28.428;-16.488;2023-02-28T05:29:19;3.20;;;1.10;;
63008;SDS011;49099;28.428;-16.488;2023-02-28T05:31:46;4.15;;;0.95;;
63008;SDS011;49099;28.428;-16.488;2023-02-28T05:34:14;3.88;;;1.10;;
63008;SDS011;49099;28.428;-16.488;2023-02-28T05:36:42;2.17;;;0.88;;
63008;SDS011;49099;28.428;-16.488;2023-02-28T05:39:09;5.13;;;1.05;;
63008;SDS011;49099;28.428;-16.488;2023-02-28T05:41:42;5.05;;;1.27;;
63008;SDS011;49099;28.428;-16.488;2023-02-28T05:44:10;3.35;;;0.93;;
63008;SDS011;49099;28.428;-16.488;2023-02-28T05:46:37;3.95;;;1.52;;
63008;SDS011;49099;28.428;-16.488;2023-02-28T05:49:04;5.18;;;1.20;;
63008;SDS011;49099;28.428;-16.488;2023-02-28T05:51:32;4.88;;;1.33;;
63008;SDS011;49099;28.428;-16.488;2023-02-28T05:54:00;3.90;;;1.10;;
63008;SDS011;49099;28.428;-16.488;2023-02-28T05:56:28;4.60;;;1.27;;
63008;SDS011;49099;28.428;-16.488;2023-02-28T05:58:55;4.40;;;1.20;;
63008;SDS011;49099;28.428;-16.488;2023-02-28T06:03:53;4.93;;;1.10;;
63008;SDS011;49099;28.428;-16.488;2023-02-28T06:06:20;4.22;;;1.33;;
63008;SDS011;49099;28.428;-16.488;2023-02-28T06:08:47;3.53;;;1.08;;
63008;SDS011;49099;28.428;-16.488;2023-02-28T06:11:14;4.10;;;1.00;;
63008;SDS011;49099;28.428;-16.488;2023-02-28T06:13:41;1.83;;;0.80;;
63008;SDS011;49099;28.428;-16.488;2023-02-28T06:16:10;4.78;;;1.08;;
63008;SDS011;49099;28.428;-16.488;2023-02-28T06:18:38;3.80;;;1.00;;
63008;SDS011;49099;28.428;-16.488;2023-02-28T06:21:05;6.03;;;1.15;;
63008;SDS011;49099;28.428;-16.488;2023-02-28T06:23:32;3.08;;;1.00;;
63008;SDS011;49099;28.428;-16.488;2023-02-28T06:26:00;5.15;;;1.20;;
63008;SDS011;49099;28.428;-16.488;2023-02-28T06:28:27;5.68;;;1.33;;
63008;SDS011;49099;28.428;-16.488;2023-02-28T06:30:54;6.72;;;1.30;;
63008;SDS011;49099;28.428;-16.488;2023-02-28T06:33:21;5.35;;;1.20;;
63008;SDS011;49099;28.428;-16.488;2023-02-28T06:35:51;3.38;;;0.93;;
63008;SDS011;49099;28.428;-16.488;2023-02-28T06:38:19;2.85;;;1.10;;
63008;SDS011;49099;28.428;-16.488;2023-02-28T06:40:52;4.47;;;1.20;;
63008;SDS011;49099;28.428;-16.488;2023-02-28T06:43:21;2.80;;;0.95;;
63008;SDS011;49099;28.428;-16.488;2023-02-28T06:45:49;5.00;;;1.10;;
63008;SDS011;49099;28.428;-16.488;2023-02-28T06:48:16;5.22;;;1.25;;
63008;SDS011;49099;28.428;-16.488;2023-02-28T06:50:44;3.33;;;1.00;;
63008;SDS011;49099;28.428;-16.488;2023-02-28T06:53:11;3.78;;;1.58;;
63008;SDS011;49099;28.428;-16.488;2023-02-28T06:55:39;2.65;;;0.90;;
63008;SDS011;49099;28.428;-16.488;2023-02-28T06:58:06;5.15;;;1.40;;
63008;SDS011;49099;28.428;-16.488;2023-02-28T07:00:44;8.52;;;1.50;;
63008;SDS011;49099;28.428;-16.488;2023-02-28T07:03:13;4.25;;;1.40;;
63008;SDS011;49099;28.428;-16.488;2023-02-28T07:05:41;9.60;;;1.40;;
63008;SDS011;49099;28.428;-16.488;2023-02-28T07:08:08;4.80;;;1.25;;
63008;SDS011;49099;28.428;-16.488;2023-02-28T07:10:39;6.60;;;1.40;;
63008;SDS011;49099;28.428;-16.488;2023-02-28T07:13:07;8.38;;;1.90;;
63008;SDS011;49099;28.428;-16.488;2023-02-28T07:15:35;8.65;;;1.30;;
63008;SDS011;49099;28.428;-16.488;2023-02-28T07:18:08;4.30;;;1.35;;
63008;SDS011;49099;28.428;-16.488;2023-02-28T07:20:35;7.47;;;1.40;;
63008;SDS011;49099;28.428;-16.488;2023-02-28T07:23:02;7.22;;;1.52;;
63008;SDS011;49099;28.428;-16.488;2023-02-28T07:25:29;11.38;;;1.50;;
63008;SDS011;49099;28.428;-16.488;2023-02-28T07:27:56;7.65;;;1.40;;
63008;SDS011;49099;28.428;-16.488;2023-02-28T07:30:25;4.35;;;1.20;;
63008;SDS011;49099;28.428;-16.488;2023-02-28T07:32:52;2.67;;;1.20;;
63008;SDS011;49099;28.428;-16.488;2023-02-28T07:35:22;3.88;;;1.10;;
63008;SDS011;49099;28.428;-16.488;2023-02-28T07:37:50;6.57;;;1.27;;
63008;SDS011;49099;28.428;-16.488;2023-02-28T07:40:17;5.75;;;1.30;;
63008;SDS011;49099;28.428;-16.488;2023-02-28T07:42:45;3.58;;;1.05;;
63008;SDS011;49099;28.428;-16.488;2023-02-28T07:45:12;7.57;;;1.20;;
63008;SDS011;49099;28.428;-16.488;2023-02-28T07:47:39;8.95;;;1.20;;
63008;SDS011;49099;28.428;-16.488;2023-02-28T07:50:09;5.18;;;1.20;;
63008;SDS011;49099;28.428;-16.488;2023-02-28T07:52:46;3.58;;;1.30;;
63008;SDS011;49099;28.428;-16.488;2023-02-28T07:55:14;5.82;;;1.20;;
63008;SDS011;49099;28.428;-16.488;2023-02-28T07:57:43;5.03;;;1.10;;
63008;SDS011;49099;28.428;-16.488;2023-02-28T08:00:10;7.40;;;1.20;;
63008;SDS011;49099;28.428;-16.488;2023-02-28T08:02:39;5.22;;;1.33;;
63008;SDS011;49099;28.428;-16.488;2023-02-28T08:05:06;11.30;;;1.90;;
63008;SDS011;49099;28.428;-16.488;2023-02-28T08:07:34;12.15;;;2.00;;
63008;SDS011;49099;28.428;-16.488;2023-02-28T08:10:01;11.27;;;2.03;;
63008;SDS011;49099;28.428;-16.488;2023-02-28T08:12:29;10.25;;;2.10;;
63008;SDS011;49099;28.428;-16.488;2023-02-28T08:14:56;5.35;;;1.58;;
63008;SDS011;49099;28.428;-16.488;2023-02-28T08:17:29;6.05;;;1.00;;
63008;SDS011;49099;28.428;-16.488;2023-02-28T08:19:56;4.25;;;1.10;;
63008;SDS011;49099;28.428;-16.488;2023-02-28T08:22:23;6.07;;;1.25;;
63008;SDS011;49099;28.428;-16.488;2023-02-28T08:24:50;4.78;;;0.90;;
63008;SDS011;49099;28.428;-16.488;2023-02-28T08:27:17;6.13;;;1.30;;
63008;SDS011;49099;28.428;-16.488;2023-02-28T08:29:44;6.43;;;1.48;;
63008;SDS011;49099;28.428;-16.488;2023-02-28T08:32:11;5.00;;;1.52;;
63008;SDS011;49099;28.428;-16.488;2023-02-28T08:34:54;3.70;;;1.42;;
63008;SDS011;49099;28.428;-16.488;2023-02-28T08:37:21;5.60;;;1.70;;
63008;SDS011;49099;28.428;-16.488;2023-02-28T08:39:48;5.97;;;1.60;;
63008;SDS011;49099;28.428;-16.488;2023-02-28T08:42:15;11.50;;;1.58;;
63008;SDS011;49099;28.428;-16.488;2023-02-28T08:44:43;9.27;;;1.60;;
63008;SDS011;49099;28.428;-16.488;2023-02-28T08:47:10;9.65;;;1.60;;
63008;SDS011;49099;28.428;-16.488;2023-02-28T08:49:37;6.03;;;1.40;;
63008;SDS011;49099;28.428;-16.488;2023-02-28T08:52:04;7.75;;;1.33;;
63008;SDS011;49099;28.428;-16.488;2023-02-28T08:54:32;8.13;;;1.60;;
63008;SDS011;49099;28.428;-16.488;2023-02-28T08:57:00;11.18;;;1.60;;
63008;SDS011;49099;28.428;-16.488;2023-02-28T08:59:29;8.80;;;1.63;;
63008;SDS011;49099;28.428;-16.488;2023-02-28T09:01:56;9.65;;;2.05;;
63008;SDS011;49099;28.428;-16.488;2023-02-28T09:04:23;11.68;;;1.73;;
63008;SDS011;49099;28.428;-16.488;2023-02-28T09:06:51;8.18;;;1.95;;
63008;SDS011;49099;28.428;-16.488;2023-02-28T09:09:18;11.73;;;2.00;;
63008;SDS011;49099;28.428;-16.488;2023-02-28T09:11:45;7.57;;;1.52;;
63008;SDS011;49099;28.428;-16.488;2023-02-28T09:14:12;9.50;;;1.67;;
63008;SDS011;49099;28.428;-16.488;2023-02-28T09:16:39;9.38;;;1.70;;
63008;SDS011;49099;28.428;-16.488;2023-02-28T09:19:09;10.18;;;1.67;;
63008;SDS011;49099;28.428;-16.488;2023-02-28T09:21:37;8.10;;;1.70;;
63008;SDS011;49099;28.428;-16.488;2023-02-28T09:24:04;8.23;;;2.30;;
63008;SDS011;49099;28.428;-16.488;2023-02-28T09:26:32;8.50;;;2.20;;
63008;SDS011;49099;28.428;-16.488;2023-02-28T09:29:08;10.60;;;1.70;;
63008;SDS011;49099;28.428;-16.488;2023-02-28T09:31:36;9.10;;;2.17;;
63008;SDS011;49099;28.428;-16.488;2023-02-28T09:34:04;11.55;;;2.42;;
63008;SDS011;49099;28.428;-16.488;2023-02-28T09:36:31;11.05;;;2.40;;
63008;SDS011;49099;28.428;-16.488;2023-02-28T09:39:10;25.73;;;4.00;;
63008;SDS011;49099;28.428;-16.488;2023-02-28T09:41:43;26.58;;;5.97;;
63008;SDS011;49099;28.428;-16.488;2023-02-28T09:44:22;61.00;;;12.70;;
63008;SDS011;49099;28.428;-16.488;2023-02-28T09:46:54;92.05;;;18.15;;
63008;SDS011;49099;28.428;-16.488;2023-02-28T09:49:28;59.95;;;12.57;;
63008;SDS011;49099;28.428;-16.488;2023-02-28T09:52:09;52.50;;;10.63;;
63008;SDS011;49099;28.428;-16.488;2023-02-28T09:54:40;52.15;;;10.70;;
63008;SDS011;49099;28.428;-16.488;2023-02-28T09:57:09;34.15;;;7.22;;
63008;SDS011;49099;28.428;-16.488;2023-02-28T10:04:59;30.63;;;6.57;;
63008;SDS011;49099;28.428;-16.488;2023-02-28T10:10:18;41.72;;;8.25;;
63008;SDS011;49099;28.428;-16.488;2023-02-28T10:12:59;33.17;;;7.63;;
63008;SDS011;49099;28.428;-16.488;2023-02-28T10:15:31;34.67;;;8.15;;
63008;SDS011;49099;28.428;-16.488;2023-02-28T10:18:04;42.47;;;9.05;;
63008;SDS011;49099;28.428;-16.488;2023-02-28T10:20:38;40.05;;;10.55;;
63008;SDS011;49099;28.428;-16.488;2023-02-28T10:23:19;65.50;;;14.18;;
63008;SDS011;49099;28.428;-16.488;2023-02-28T10:26:32;75.20;;;15.65;;
63008;SDS011;49099;28.428;-16.488;2023-02-28T10:28:42;54.60;;;11.38;;
63008;SDS011;49099;28.428;-16.488;2023-02-28T10:31:19;53.38;;;12.02;;
63008;SDS011;49099;28.428;-16.488;2023-02-28T10:33:48;57.83;;;12.43;;
63008;SDS011;49099;28.428;-16.488;2023-02-28T10:36:16;70.68;;;12.75;;
63008;SDS011;49099;28.428;-16.488;2023-02-28T10:38:46;42.15;;;8.38;;
63008;SDS011;49099;28.428;-16.488;2023-02-28T10:41:16;62.35;;;11.90;;
63008;SDS011;49099;28.428;-16.488;2023-02-28T10:44:12;68.53;;;13.23;;
63008;SDS011;49099;28.428;-16.488;2023-02-28T10:46:42;70.03;;;14.07;;
63008;SDS011;49099;28.428;-16.488;2023-02-28T10:49:14;64.13;;;14.73;;
63008;SDS011;49099;28.428;-16.488;2023-02-28T10:51:42;59.13;;;11.98;;
63008;SDS011;49099;28.428;-16.488;2023-02-28T10:54:16;52.28;;;10.80;;
63008;SDS011;49099;28.428;-16.488;2023-02-28T10:57:06;58.60;;;12.10;;
63008;SDS011;49099;28.428;-16.488;2023-02-28T10:59:43;52.42;;;11.00;;
63008;SDS011;49099;28.428;-16.488;2023-02-28T11:02:32;64.90;;;13.25;;
63008;SDS011;49099;28.428;-16.488;2023-02-28T11:05:50;57.92;;;12.85;;
63008;SDS011;49099;28.428;-16.488;2023-02-28T11:08:05;63.95;;;13.95;;
63008;SDS011;49099;28.428;-16.488;2023-02-28T11:10:53;62.20;;;14.57;;
63008;SDS011;49099;28.428;-16.488;2023-02-28T11:13:25;83.07;;;17.15;;
63008;SDS011;49099;28.428;-16.488;2023-02-28T11:15:57;95.30;;;18.30;;
63008;SDS011;49099;28.428;-16.488;2023-02-28T11:21:16;111.78;;;22.55;;
63008;SDS011;49099;28.428;-16.488;2023-02-28T11:23:48;60.63;;;13.13;;
63008;SDS011;49099;28.428;-16.488;2023-02-28T11:26:34;60.63;;;12.25;;
63008;SDS011;49099;28.428;-16.488;2023-02-28T11:29:18;99.93;;;18.65;;
63008;SDS011;49099;28.428;-16.488;2023-02-28T11:34:38;61.92;;;12.40;;
63008;SDS011;49099;28.428;-16.488;2023-02-28T11:37:09;104.20;;;16.98;;
63008;SDS011;49099;28.428;-16.488;2023-02-28T11:39:42;86.30;;;16.45;;
63008;SDS011;49099;28.428;-16.488;2023-02-28T11:47:45;53.33;;;12.43;;
63008;SDS011;49099;28.428;-16.488;2023-02-28T11:50:21;70.68;;;13.90;;
63008;SDS011;49099;28.428;-16.488;2023-02-28T11:52:56;80.97;;;15.68;;
63008;SDS011;49099;28.428;-16.488;2023-02-28T11:55:49;78.32;;;13.70;;
63008;SDS011;49099;28.428;-16.488;2023-02-28T12:01:21;34.45;;;7.78;;
63008;SDS011;49099;28.428;-16.488;2023-02-28T12:04:17;54.88;;;11.50;;
63008;SDS011;49099;28.428;-16.488;2023-02-28T12:09:55;23.70;;;5.25;;
63008;SDS011;49099;28.428;-16.488;2023-02-28T12:12:59;28.58;;;5.95;;
63008;SDS011;49099;28.428;-16.488;2023-02-28T12:26:45;15.25;;;3.72;;
63008;SDS011;49099;28.428;-16.488;2023-02-28T12:32:07;26.58;;;5.30;;
63008;SDS011;49099;28.428;-16.488;2023-02-28T12:34:44;11.35;;;3.25;;
63008;SDS011;49099;28.428;-16.488;2023-02-28T12:37:21;32.75;;;7.93;;
63008;SDS011;49099;28.428;-16.488;2023-02-28T12:40:05;18.23;;;4.70;;
63008;SDS011;49099;28.428;-16.488;2023-02-28T12:42:46;33.20;;;6.50;;
63008;SDS011;49099;28.428;-16.488;2023-02-28T12:45:22;19.88;;;3.60;;
63008;SDS011;49099;28.428;-16.488;2023-02-28T12:47:55;10.55;;;2.60;;
63008;SDS011;49099;28.428;-16.488;2023-02-28T12:50:27;11.63;;;2.63;;
63008;SDS011;49099;28.428;-16.488;2023-02-28T12:53:03;13.27;;;3.20;;
63008;SDS011;49099;28.428;-16.488;2023-02-28T13:01:20;7.70;;;1.73;;
63008;SDS011;49099;28.428;-16.488;2023-02-28T13:04:41;11.70;;;2.42;;
63008;SDS011;49099;28.428;-16.488;2023-02-28T13:10:19;18.33;;;5.57;;
63008;SDS011;49099;28.428;-16.488;2023-02-28T13:12:47;33.63;;;7.78;;
63008;SDS011;49099;28.428;-16.488;2023-02-28T13:15:21;33.70;;;6.00;;
63008;SDS011;49099;28.428;-16.488;2023-02-28T13:17:52;25.67;;;5.47;;
63008;SDS011;49099;28.428;-16.488;2023-02-28T13:20:37;22.50;;;4.03;;
63008;SDS011;49099;28.428;-16.488;2023-02-28T13:23:37;28.85;;;5.18;;
63008;SDS011;49099;28.428;-16.488;2023-02-28T13:26:12;11.98;;;2.30;;
63008;SDS011;49099;28.428;-16.488;2023-02-28T13:29:01;22.95;;;5.50;;
63008;SDS011;49099;28.428;-16.488;2023-02-28T13:31:28;22.92;;;4.63;;
63008;SDS011;49099;28.428;-16.488;2023-02-28T13:36:26;10.00;;;2.00;;
63008;SDS011;49099;28.428;-16.488;2023-02-28T14:00:34;11.07;;;2.10;;
63008;SDS011;49099;28.428;-16.488;2023-02-28T14:05:29;11.93;;;2.15;;
63008;SDS011;49099;28.428;-16.488;2023-02-28T14:07:59;13.02;;;2.80;;
63008;SDS011;49099;28.428;-16.488;2023-02-28T14:10:37;14.63;;;3.10;;
63008;SDS011;49099;28.428;-16.488;2023-02-28T14:15:55;18.30;;;4.18;;
63008;SDS011;49099;28.428;-16.488;2023-02-28T14:18:30;15.93;;;3.88;;
63008;SDS011;49099;28.428;-16.488;2023-02-28T14:21:09;28.30;;;5.45;;
63008;SDS011;49099;28.428;-16.488;2023-02-28T14:24:16;27.90;;;6.63;;
63008;SDS011;49099;28.428;-16.488;2023-02-28T14:35:20;14.88;;;2.80;;
63008;SDS011;49099;28.428;-16.488;2023-02-28T14:37:49;6.25;;;1.50;;
63008;SDS011;49099;28.428;-16.488;2023-02-28T14:40:17;6.10;;;1.45;;
63008;SDS011;49099;28.428;-16.488;2023-02-28T14:45:29;5.68;;;1.40;;
63008;SDS011;49099;28.428;-16.488;2023-02-28T14:47:57;5.57;;;1.42;;
63008;SDS011;49099;28.428;-16.488;2023-02-28T14:50:35;8.50;;;2.00;;
63008;SDS011;49099;28.428;-16.488;2023-02-28T14:53:04;7.18;;;1.60;;
63008;SDS011;49099;28.428;-16.488;2023-02-28T14:55:43;5.20;;;1.65;;
63008;SDS011;49099;28.428;-16.488;2023-02-28T14:58:28;7.50;;;1.90;;
63008;SDS011;49099;28.428;-16.488;2023-02-28T15:01:01;10.70;;;2.30;;
63008;SDS011;49099;28.428;-16.488;2023-02-28T15:03:37;16.03;;;2.40;;
63008;SDS011;49099;28.428;-16.488;2023-02-28T15:06:06;10.70;;;2.10;;
63008;SDS011;49099;28.428;-16.488;2023-02-28T15:08:40;20.10;;;4.40;;
63008;SDS011;49099;28.428;-16.488;2023-02-28T15:11:08;22.92;;;4.70;;
63008;SDS011;49099;28.428;-16.488;2023-02-28T15:13:46;20.90;;;4.10;;
63008;SDS011;49099;28.428;-16.488;2023-02-28T15:16:19;23.15;;;4.25;;
63008;SDS011;49099;28.428;-16.488;2023-02-28T15:18:59;18.42;;;3.90;;
63008;SDS011;49099;28.428;-16.488;2023-02-28T15:21:30;12.30;;;2.53;;
63008;SDS011;49099;28.428;-16.488;2023-02-28T15:24:03;10.77;;;2.42;;
63008;SDS011;49099;28.428;-16.488;2023-02-28T15:26:41;9.98;;;2.03;;
63008;SDS011;49099;28.428;-16.488;2023-02-28T15:29:17;10.38;;;2.42;;
63008;SDS011;49099;28.428;-16.488;2023-02-28T15:32:16;24.17;;;5.05;;
63008;SDS011;49099;28.428;-16.488;2023-02-28T15:34:47;12.20;;;2.70;;
63008;SDS011;49099;28.428;-16.488;2023-02-28T15:37:25;16.38;;;3.35;;
63008;SDS011;49099;28.428;-16.488;2023-02-28T15:39:55;14.73;;;3.30;;
63008;SDS011;49099;28.428;-16.488;2023-02-28T15:42:30;7.93;;;1.88;;
63008;SDS011;49099;28.428;-16.488;2023-02-28T15:44:58;15.90;;;3.25;;
63008;SDS011;49099;28.428;-16.488;2023-02-28T15:47:27;7.05;;;1.90;;
63008;SDS011;49099;28.428;-16.488;2023-02-28T15:49:57;7.43;;;1.55;;
63008;SDS011;49099;28.428;-16.488;2023-02-28T15:55:07;6.90;;;1.83;;
63008;SDS011;49099;28.428;-16.488;2023-02-28T15:57:52;6.75;;;1.50;;
63008;SDS011;49099;28.428;-16.488;2023-02-28T16:00:22;8.40;;;1.80;;
63008;SDS011;49099;28.428;-16.488;2023-02-28T16:02:52;5.20;;;1.33;;
63008;SDS011;49099;28.428;-16.488;2023-02-28T16:05:20;4.55;;;1.30;;
63008;SDS011;49099;28.428;-16.488;2023-02-28T16:07:59;4.32;;;1.38;;
63008;SDS011;49099;28.428;-16.488;2023-02-28T16:10:40;5.97;;;1.40;;
63008;SDS011;49099;28.428;-16.488;2023-02-28T16:13:08;7.70;;;1.70;;
63008;SDS011;49099;28.428;-16.488;2023-02-28T16:15:41;7.95;;;1.42;;
63008;SDS011;49099;28.428;-16.488;2023-02-28T16:18:11;6.60;;;1.23;;
63008;SDS011;49099;28.428;-16.488;2023-02-28T16:20:39;6.80;;;1.38;;
63008;SDS011;49099;28.428;-16.488;2023-02-28T16:23:06;7.55;;;1.42;;
63008;SDS011;49099;28.428;-16.488;2023-02-28T16:25:41;8.65;;;1.70;;
63008;SDS011;49099;28.428;-16.488;2023-02-28T16:28:20;5.55;;;1.45;;
63008;SDS011;49099;28.428;-16.488;2023-02-28T16:30:51;8.18;;;1.75;;
63008;SDS011;49099;28.428;-16.488;2023-02-28T16:33:19;6.20;;;1.15;;
63008;SDS011;49099;28.428;-16.488;2023-02-28T16:35:47;4.32;;;1.17;;
63008;SDS011;49099;28.428;-16.488;2023-02-28T16:38:14;5.97;;;1.10;;
63008;SDS011;49099;28.428;-16.488;2023-02-28T16:40:41;7.65;;;2.00;;
63008;SDS011;49099;28.428;-16.488;2023-02-28T16:43:10;10.93;;;2.30;;
63008;SDS011;49099;28.428;-16.488;2023-02-28T16:45:44;7.97;;;1.50;;
63008;SDS011;49099;28.428;-16.488;2023-02-28T16:48:12;14.18;;;2.42;;
63008;SDS011;49099;28.428;-16.488;2023-02-28T16:50:42;14.23;;;2.70;;
63008;SDS011;49099;28.428;-16.488;2023-02-28T16:53:12;17.67;;;3.10;;
63008;SDS011;49099;28.428;-16.488;2023-02-28T16:55:40;10.68;;;2.50;;
63008;SDS011;49099;28.428;-16.488;2023-02-28T16:58:10;8.48;;;1.90;;
63008;SDS011;49099;28.428;-16.488;2023-02-28T17:00:41;8.05;;;1.80;;
63008;SDS011;49099;28.428;-16.488;2023-02-28T17:03:19;12.25;;;2.10;;
63008;SDS011;49099;28.428;-16.488;2023-02-28T17:05:59;10.20;;;1.90;;